Time;durP1;ratioP1;P1;durP2;ratioP2;P2;SDS_P1;SDS_P2;PMS_P1;PMS_P2;Temp;Humidity;BMP_temperature;BMP_pressure;BME280_temperature;BME280_humidity;BME280_pressure;Samples;Min_cycle;Max_cycle;Signal;HPM_P1;HPM_P2
2023/05/29 00:00:47;;;;;;;14.70;2.77;;;11.70;99.90;;;;;;5014377;28;20418;-72
2023/05/29 00:03:13;;;;;;;17.80;3.00;;;11.70;99.90;;;;;;5009189;28;20412;-72
2023/05/29 00:05:39;;;;;;;14.87;2.47;;;11.70;99.90;;;;;;5007901;28;20564;-72
2023/05/29 00:08:06;;;;;;;15.20;2.50;;;11.70;99.90;;;;;;5012534;28;20405;-72
2023/05/29 00:10:32;;;;;;;17.50;2.80;;;11.70;99.90;;;;;;5011608;28;20409;-72
2023/05/29 00:12:57;;;;;;;12.93;2.47;;;11.70;99.90;;;;;;5004336;28;20406;-72
2023/05/29 00:15:23;;;;;;;17.77;2.63;;;11.60;99.90;;;;;;5014574;28;20497;-72
2023/05/29 00:17:49;;;;;;;21.17;2.88;;;11.60;99.90;;;;;;5011673;28;20488;-72
2023/05/29 00:20:15;;;;;;;16.87;3.33;;;11.60;99.90;;;;;;5010002;28;20405;-72
2023/05/29 00:22:41;;;;;;;19.02;3.30;;;11.60;99.90;;;;;;5010421;28;20455;-72
2023/05/29 00:25:08;;;;;;;15.40;2.90;;;11.60;99.90;;;;;;5009539;28;20465;-72
2023/05/29 00:27:34;;;;;;;15.65;2.63;;;11.60;99.90;;;;;;5014639;28;21043;-72
2023/05/29 00:30:01;;;;;;;19.58;3.10;;;11.60;99.90;;;;;;5016493;28;20817;-72
2023/05/29 00:32:27;;;;;;;16.67;3.00;;;11.60;99.90;;;;;;5010510;28;20957;-72
2023/05/29 00:34:53;;;;;;;18.15;2.75;;;11.60;99.90;;;;;;5010602;28;20404;-72
2023/05/29 00:37:21;;;;;;;15.73;2.90;;;11.50;99.90;;;;;;5037351;28;20417;-72
2023/05/29 00:39:50;;;;;;;16.40;2.75;;;11.50;99.90;;;;;;5014064;28;20977;-73
2023/05/29 00:42:15;;;;;;;16.85;3.00;;;11.50;99.90;;;;;;5017695;28;20428;-73
2023/05/29 00:44:41;;;;;;;18.03;3.30;;;11.50;99.90;;;;;;5007014;28;20468;-73
2023/05/29 00:47:07;;;;;;;14.95;2.97;;;11.60;99.90;;;;;;5030148;28;20813;-73
2023/05/29 00:49:35;;;;;;;16.95;2.70;;;11.60;99.90;;;;;;5012471;28;20440;-73
2023/05/29 00:52:02;;;;;;;17.42;3.05;;;11.70;99.90;;;;;;4993964;28;20427;-72
2023/05/29 00:54:29;;;;;;;16.93;3.00;;;11.70;99.90;;;;;;5041015;28;20408;-73
2023/05/29 00:56:57;;;;;;;15.55;2.85;;;11.70;99.90;;;;;;4994004;28;20425;-73
2023/05/29 00:59:23;;;;;;;18.25;2.88;;;11.80;99.90;;;;;;4993155;28;20530;-73
2023/05/29 01:01:53;;;;;;;13.27;2.55;;;11.80;99.90;;;;;;5010744;28;20833;-73
2023/05/29 01:04:21;;;;;;;17.45;3.55;;;11.80;99.90;;;;;;5011256;28;20438;-73
2023/05/29 01:06:46;;;;;;;20.73;3.65;;;11.90;99.90;;;;;;4994467;28;20504;-72
2023/05/29 01:09:13;;;;;;;14.95;3.40;;;11.90;99.90;;;;;;5008656;28;20411;-73
2023/05/29 01:11:50;;;;;;;17.27;3.07;;;12.00;99.90;;;;;;5018217;28;20893;-73
2023/05/29 01:14:44;;;;;;;16.38;2.83;;;11.90;99.90;;;;;;5010238;28;20445;-73
2023/05/29 01:17:24;;;;;;;17.38;3.00;;;11.90;99.90;;;;;;4988855;28;20415;-73
2023/05/29 01:20:08;;;;;;;17.55;2.88;;;11.90;99.90;;;;;;5027514;28;20443;-73
2023/05/29 01:23:10;;;;;;;10.23;2.17;;;11.90;99.90;;;;;;5027698;28;20502;-73
2023/05/29 01:26:01;;;;;;;14.70;2.58;;;11.80;99.90;;;;;;5006830;28;20419;-73
2023/05/29 01:28:35;;;;;;;14.50;2.47;;;11.80;99.90;;;;;;5009797;28;20423;-73
2023/05/29 01:31:02;;;;;;;14.50;2.70;;;11.70;99.90;;;;;;4992201;28;20545;-73
2023/05/29 01:33:28;;;;;;;12.70;2.50;;;11.80;99.90;;;;;;5010213;28;20502;-73
2023/05/29 01:35:54;;;;;;;15.02;2.67;;;11.80;99.90;;;;;;5029545;28;20417;-73
2023/05/29 01:38:19;;;;;;;15.77;2.72;;;11.80;99.90;;;;;;4994665;28;20477;-73
2023/05/29 01:40:46;;;;;;;12.63;2.37;;;11.80;99.90;;;;;;5011182;28;20533;-73
2023/05/29 01:43:12;;;;;;;12.27;2.03;;;11.70;99.90;;;;;;5028547;28;20407;-73
2023/05/29 01:45:39;;;;;;;11.27;2.03;;;11.70;99.90;;;;;;5040325;28;20400;-73
2023/05/29 01:48:06;;;;;;;11.40;2.30;;;11.70;99.90;;;;;;5006479;28;20482;-73
2023/05/29 01:50:31;;;;;;;9.18;2.00;;;11.70;99.90;;;;;;5020828;28;20407;-73
2023/05/29 01:52:57;;;;;;;14.83;2.13;;;11.60;99.90;;;;;;5009498;28;20956;-72
2023/05/29 01:55:23;;;;;;;11.35;1.90;;;11.60;99.90;;;;;;5010375;28;20540;-73
2023/05/29 01:57:50;;;;;;;13.77;2.03;;;11.50;99.90;;;;;;5027694;28;20942;-72
2023/05/29 02:00:18;;;;;;;10.98;2.47;;;11.50;99.90;;;;;;5009653;28;20411;-72
2023/05/29 02:02:44;;;;;;;11.73;2.22;;;11.60;99.90;;;;;;5027999;28;20804;-73
2023/05/29 02:05:10;;;;;;;11.82;2.03;;;11.50;99.90;;;;;;5028071;28;20397;-73
2023/05/29 02:07:38;;;;;;;12.80;1.90;;;11.50;99.90;;;;;;5010267;28;20928;-73
2023/05/29 02:10:05;;;;;;;13.03;2.13;;;11.50;99.90;;;;;;5008827;28;20422;-73
2023/05/29 02:12:31;;;;;;;12.02;2.25;;;11.60;99.90;;;;;;5010336;28;20415;-72
2023/05/29 02:14:56;;;;;;;10.37;1.93;;;11.50;99.90;;;;;;5027608;28;20403;-72
2023/05/29 02:17:22;;;;;;;13.52;2.13;;;11.60;99.90;;;;;;5028280;28;20410;-73
2023/05/29 02:19:48;;;;;;;13.55;1.77;;;11.60;99.90;;;;;;5027516;28;20431;-72
2023/05/29 02:22:14;;;;;;;12.17;2.23;;;11.70;99.90;;;;;;5010397;28;20976;-72
2023/05/29 02:24:40;;;;;;;11.25;1.63;;;11.70;99.90;;;;;;5009977;28;20407;-73
2023/05/29 02:27:06;;;;;;;10.02;1.85;;;11.70;99.90;;;;;;4999544;28;20418;-73
2023/05/29 02:29:32;;;;;;;15.98;2.50;;;11.70;99.90;;;;;;5010335;28;20418;-73
2023/05/29 02:31:57;;;;;;;15.70;2.60;;;11.70;99.90;;;;;;4994034;28;20473;-73
2023/05/29 02:34:23;;;;;;;11.77;2.40;;;11.70;99.90;;;;;;4993903;28;20506;-73
2023/05/29 02:36:51;;;;;;;13.43;2.33;;;11.80;99.90;;;;;;5027199;28;20454;-73
2023/05/29 02:39:17;;;;;;;14.10;2.40;;;11.80;99.90;;;;;;5010677;28;20497;-73
2023/05/29 02:41:43;;;;;;;11.88;2.30;;;11.80;99.90;;;;;;5028062;28;20490;-73
2023/05/29 02:44:09;;;;;;;11.63;2.53;;;11.80;99.90;;;;;;5013935;28;20872;-73
2023/05/29 02:46:34;;;;;;;13.52;2.47;;;11.70;99.90;;;;;;5013453;28;20437;-73
2023/05/29 02:49:00;;;;;;;12.87;2.33;;;11.80;99.90;;;;;;5031139;28;20407;-73
2023/05/29 02:51:27;;;;;;;12.13;2.20;;;11.70;99.90;;;;;;5013400;28;20399;-72
2023/05/29 02:53:52;;;;;;;13.75;3.05;;;11.70;99.90;;;;;;5030982;28;20940;-73
2023/05/29 02:56:18;;;;;;;16.02;2.30;;;11.70;99.90;;;;;;5029085;28;20412;-72
2023/05/29 02:58:45;;;;;;;13.77;2.30;;;11.70;99.90;;;;;;5022750;28;20480;-73
2023/05/29 03:01:10;;;;;;;12.32;2.15;;;11.70;99.90;;;;;;5020853;28;20411;-73
2023/05/29 03:03:36;;;;;;;11.70;2.40;;;11.60;99.90;;;;;;5023081;28;20864;-73
2023/05/29 03:06:02;;;;;;;16.75;2.90;;;11.60;99.90;;;;;;5039340;28;20406;-73
2023/05/29 03:08:28;;;;;;;10.85;2.10;;;11.70;99.90;;;;;;5010087;28;20413;-73
2023/05/29 03:10:55;;;;;;;13.07;2.50;;;11.70;99.90;;;;;;5021505;28;20515;-73
2023/05/29 03:13:20;;;;;;;13.38;2.55;;;11.70;99.90;;;;;;5035679;28;20410;-73
2023/05/29 03:15:47;;;;;;;13.18;2.30;;;11.70;99.90;;;;;;5030438;28;20419;-73
2023/05/29 03:18:12;;;;;;;15.50;2.50;;;11.70;99.90;;;;;;5013976;28;20438;-73
2023/05/29 03:20:38;;;;;;;14.93;2.63;;;11.80;99.90;;;;;;5028145;28;20791;-73
2023/05/29 03:23:04;;;;;;;12.33;2.30;;;11.70;99.90;;;;;;5024178;28;20407;-73
2023/05/29 03:25:29;;;;;;;13.30;2.20;;;11.70;99.90;;;;;;5013247;28;20408;-73
2023/05/29 03:27:55;;;;;;;12.90;2.47;;;11.70;99.90;;;;;;5012291;28;20879;-73
2023/05/29 03:30:21;;;;;;;11.23;2.03;;;11.70;99.90;;;;;;5039423;28;20897;-73
2023/05/29 03:32:46;;;;;;;11.60;2.10;;;11.70;99.90;;;;;;5012771;28;20928;-73
2023/05/29 03:35:12;;;;;;;11.60;2.25;;;11.70;99.90;;;;;;5030053;28;20951;-73
2023/05/29 03:37:38;;;;;;;13.87;2.20;;;11.70;99.90;;;;;;5031504;28;20777;-73
2023/05/29 03:40:04;;;;;;;10.77;2.22;;;11.70;99.90;;;;;;5031191;28;20479;-73
2023/05/29 03:42:31;;;;;;;10.00;2.00;;;11.80;99.90;;;;;;5022327;28;20963;-73
2023/05/29 03:44:56;;;;;;;13.07;2.05;;;11.70;99.90;;;;;;5020098;28;20495;-73
2023/05/29 03:47:22;;;;;;;10.23;2.00;;;11.70;99.90;;;;;;5017710;28;20450;-73
2023/05/29 03:49:48;;;;;;;12.27;1.90;;;11.70;99.90;;;;;;5022666;28;20420;-73
2023/05/29 03:52:14;;;;;;;11.60;1.80;;;11.70;99.90;;;;;;5007392;28;20447;-73
2023/05/29 03:54:39;;;;;;;11.98;1.92;;;11.70;99.90;;;;;;5011394;28;20419;-73
2023/05/29 03:57:06;;;;;;;9.73;1.90;;;11.60;99.90;;;;;;5029965;28;20442;-73
2023/05/29 03:59:32;;;;;;;12.85;2.42;;;11.60;99.90;;;;;;5012098;28;20466;-73
2023/05/29 04:01:58;;;;;;;10.13;2.17;;;11.60;99.90;;;;;;5028947;28;20407;-73
2023/05/29 04:04:24;;;;;;;10.80;2.33;;;11.70;99.90;;;;;;5018816;28;20457;-73
2023/05/29 04:06:49;;;;;;;12.65;2.03;;;11.70;99.90;;;;;;5011458;28;20411;-73
2023/05/29 04:09:15;;;;;;;12.87;2.43;;;11.70;99.90;;;;;;4995606;28;20550;-73
2023/05/29 04:11:41;;;;;;;15.85;2.65;;;11.70;99.90;;;;;;5012441;28;20491;-73
2023/05/29 04:14:07;;;;;;;13.80;2.40;;;11.70;99.90;;;;;;5013128;28;20817;-72
2023/05/29 04:16:32;;;;;;;15.77;3.05;;;11.70;99.90;;;;;;5011524;28;20411;-73
2023/05/29 04:18:58;;;;;;;11.43;2.20;;;11.70;99.90;;;;;;5012793;28;20442;-72
2023/05/29 04:21:24;;;;;;;11.82;2.30;;;11.70;99.90;;;;;;5001879;28;20407;-73
2023/05/29 04:23:49;;;;;;;10.80;2.13;;;11.70;99.90;;;;;;5012581;28;20465;-72
2023/05/29 04:26:15;;;;;;;10.63;2.37;;;11.80;99.90;;;;;;5012250;28;20418;-72
2023/05/29 04:28:42;;;;;;;15.60;2.60;;;11.70;99.90;;;;;;5012043;28;20423;-72
2023/05/29 04:31:08;;;;;;;12.05;2.10;;;11.80;99.90;;;;;;5029265;28;20755;-73
2023/05/29 04:33:36;;;;;;;15.05;3.20;;;11.80;99.90;;;;;;5029579;28;20422;-72
2023/05/29 04:36:03;;;;;;;12.23;2.20;;;11.80;99.90;;;;;;5010839;28;20502;-72
2023/05/29 04:38:29;;;;;;;13.82;2.42;;;11.80;99.90;;;;;;5027028;28;20454;-72
2023/05/29 04:40:58;;;;;;;15.43;2.80;;;11.80;99.90;;;;;;5028723;28;20403;-72
2023/05/29 04:43:26;;;;;;;14.35;2.60;;;11.80;99.90;;;;;;5018790;28;20400;-72
2023/05/29 04:45:52;;;;;;;12.52;2.60;;;11.90;99.90;;;;;;5024827;28;20500;-72
2023/05/29 04:48:18;;;;;;;13.85;2.72;;;11.90;99.90;;;;;;5029489;28;20470;-72
2023/05/29 04:50:44;;;;;;;16.15;2.92;;;11.90;99.90;;;;;;5028988;28;20467;-72
2023/05/29 04:53:10;;;;;;;13.73;2.50;;;11.90;99.90;;;;;;5011508;28;20940;-73
2023/05/29 04:55:36;;;;;;;16.23;3.00;;;11.90;99.90;;;;;;5028044;28;20419;-72
2023/05/29 04:58:02;;;;;;;15.10;3.00;;;11.90;99.90;;;;;;5028914;28;20403;-72
2023/05/29 05:00:27;;;;;;;14.98;3.35;;;11.90;99.90;;;;;;5010255;28;20490;-72
2023/05/29 05:02:53;;;;;;;16.08;3.30;;;12.00;99.90;;;;;;5010422;28;20757;-72
2023/05/29 05:05:20;;;;;;;13.83;2.83;;;12.00;99.90;;;;;;5009451;28;20410;-72
2023/05/29 05:07:45;;;;;;;18.60;3.50;;;12.10;99.90;;;;;;5010276;28;20706;-72
2023/05/29 05:10:11;;;;;;;15.57;3.40;;;12.10;99.90;;;;;;5010779;28;20402;-72
2023/05/29 05:12:37;;;;;;;13.43;2.80;;;12.20;99.90;;;;;;5028448;28;20411;-72
2023/05/29 05:15:03;;;;;;;20.80;3.60;;;12.20;99.90;;;;;;5010770;28;20406;-73
2023/05/29 05:17:29;;;;;;;15.93;2.88;;;12.30;99.90;;;;;;5019169;28;20531;-72
2023/05/29 05:19:54;;;;;;;12.65;2.70;;;12.30;99.90;;;;;;4999363;28;20901;-73
2023/05/29 05:22:20;;;;;;;16.53;3.43;;;12.30;99.90;;;;;;5010214;28;20411;-73
2023/05/29 05:24:45;;;;;;;13.93;3.25;;;12.30;99.90;;;;;;5027008;28;20410;-72
2023/05/29 05:27:11;;;;;;;13.23;2.67;;;12.30;99.90;;;;;;5009668;28;20414;-72
2023/05/29 05:29:37;;;;;;;14.07;2.95;;;12.30;99.90;;;;;;5027472;28;20472;-72
2023/05/29 05:32:03;;;;;;;14.07;2.60;;;12.40;99.90;;;;;;5027873;28;20406;-73
2023/05/29 05:34:28;;;;;;;15.57;3.10;;;12.40;99.90;;;;;;4998242;28;20467;-72
2023/05/29 05:36:54;;;;;;;17.77;3.77;;;12.40;99.90;;;;;;5009512;28;20465;-72
2023/05/29 05:39:19;;;;;;;14.98;2.67;;;12.40;99.90;;;;;;5027457;28;20522;-72
2023/05/29 05:41:45;;;;;;;14.90;2.93;;;12.40;99.90;;;;;;5009974;28;20413;-72
2023/05/29 05:44:11;;;;;;;15.02;3.45;;;12.50;99.90;;;;;;4995400;28;20442;-73
2023/05/29 05:46:36;;;;;;;13.83;3.07;;;12.40;99.90;;;;;;5030312;28;20448;-73
2023/05/29 05:49:02;;;;;;;14.50;3.67;;;12.50;99.90;;;;;;5028564;28;20427;-73
2023/05/29 05:51:28;;;;;;;15.80;3.50;;;12.60;99.90;;;;;;5029853;28;20413;-73
2023/05/29 05:53:54;;;;;;;13.30;3.03;;;12.60;99.90;;;;;;5028530;28;20410;-73
2023/05/29 05:56:19;;;;;;;13.27;2.80;;;12.70;99.90;;;;;;5029920;28;20425;-73
2023/05/29 05:58:45;;;;;;;15.93;3.23;;;12.70;99.90;;;;;;5015553;28;20446;-73
2023/05/29 06:01:11;;;;;;;17.05;3.13;;;12.70;99.90;;;;;;5030245;28;20538;-73
2023/05/29 06:03:39;;;;;;;16.83;3.35;;;12.70;99.90;;;;;;5028493;28;20432;-73
2023/05/29 06:06:05;;;;;;;15.85;3.35;;;12.70;99.90;;;;;;5031077;28;20478;-73
2023/05/29 06:08:30;;;;;;;14.13;3.30;;;12.70;99.90;;;;;;5024213;28;20869;-73
2023/05/29 06:10:56;;;;;;;19.55;3.50;;;12.70;99.90;;;;;;5039091;28;20406;-73
2023/05/29 06:13:22;;;;;;;16.60;3.20;;;12.70;99.90;;;;;;5009277;28;20402;-73
2023/05/29 06:15:47;;;;;;;18.33;3.28;;;12.70;99.90;;;;;;5010284;28;20450;-73
2023/05/29 06:18:13;;;;;;;15.60;2.90;;;12.80;99.90;;;;;;5029743;28;20431;-73
2023/05/29 06:20:39;;;;;;;17.38;2.75;;;12.80;99.90;;;;;;5032361;28;20419;-73
2023/05/29 06:23:04;;;;;;;15.73;3.50;;;12.80;99.90;;;;;;5031828;28;20441;-73
2023/05/29 06:25:33;;;;;;;17.13;3.72;;;12.80;99.90;;;;;;5015414;28;20457;-73
2023/05/29 06:28:02;;;;;;;19.83;3.85;;;12.80;99.90;;;;;;5014715;28;21367;-73
2023/05/29 06:30:28;;;;;;;15.05;3.00;;;12.80;99.90;;;;;;5029453;28;20469;-73
2023/05/29 06:32:54;;;;;;;16.73;3.25;;;12.80;99.90;;;;;;5032901;28;20426;-73
2023/05/29 06:35:20;;;;;;;17.13;3.47;;;12.90;99.90;;;;;;5015242;28;20465;-73
2023/05/29 06:37:46;;;;;;;16.25;3.35;;;12.90;99.90;;;;;;5002664;28;20426;-73
2023/05/29 06:40:13;;;;;;;15.48;3.38;;;13.00;99.90;;;;;;4999289;28;20434;-73
2023/05/29 06:42:38;;;;;;;15.32;3.15;;;13.10;99.90;;;;;;5015856;28;20463;-73
2023/05/29 06:45:04;;;;;;;16.27;3.30;;;13.10;99.90;;;;;;5014252;28;20826;-74
2023/05/29 06:47:31;;;;;;;18.20;3.33;;;13.10;99.90;;;;;;5041088;28;20423;-74
2023/05/29 06:49:57;;;;;;;14.68;3.22;;;13.00;99.90;;;;;;4997142;28;20508;-74
2023/05/29 06:52:22;;;;;;;18.95;3.30;;;13.00;99.90;;;;;;5025106;28;20537;-73
2023/05/29 06:54:48;;;;;;;22.07;3.83;;;13.10;99.90;;;;;;5045491;28;20405;-74
2023/05/29 06:57:13;;;;;;;19.80;3.28;;;13.00;99.90;;;;;;5020746;28;20413;-74
2023/05/29 06:59:39;;;;;;;18.73;3.60;;;13.10;99.90;;;;;;5022016;28;20439;-73
2023/05/29 07:02:05;;;;;;;15.07;3.05;;;13.10;99.90;;;;;;5024656;28;20842;-74
2023/05/29 07:04:31;;;;;;;22.20;4.10;;;13.20;99.90;;;;;;5039848;28;20413;-73
2023/05/29 07:06:56;;;;;;;15.88;3.10;;;13.30;99.90;;;;;;5026930;28;20467;-73
2023/05/29 07:09:22;;;;;;;16.73;3.57;;;13.30;99.90;;;;;;5027086;28;20418;-73
2023/05/29 07:11:48;;;;;;;16.23;3.17;;;13.40;99.90;;;;;;5019827;28;20509;-74
2023/05/29 07:14:14;;;;;;;14.40;2.73;;;13.40;99.90;;;;;;5022236;28;20414;-74
2023/05/29 07:16:39;;;;;;;20.10;3.78;;;13.40;99.90;;;;;;5008952;28;20417;-74
2023/05/29 07:19:05;;;;;;;14.03;3.20;;;13.50;99.90;;;;;;5028887;28;20449;-74
2023/05/29 07:21:31;;;;;;;17.75;3.50;;;13.50;99.90;;;;;;5027024;28;20506;-74
2023/05/29 07:23:56;;;;;;;15.50;3.10;;;13.70;99.90;;;;;;5010468;28;20468;-74
2023/05/29 07:26:22;;;;;;;16.67;3.23;;;13.70;99.90;;;;;;5041411;28;20412;-73
2023/05/29 07:28:49;;;;;;;12.52;2.90;;;13.80;99.90;;;;;;5029593;28;20435;-73
2023/05/29 07:31:14;;;;;;;16.80;3.42;;;13.80;99.90;;;;;;5030783;28;20416;-71
2023/05/29 07:33:44;;;;;;;16.45;3.25;;;13.90;99.90;;;;;;5027035;28;20417;-71
2023/05/29 07:36:10;;;;;;;16.60;3.05;;;13.90;99.90;;;;;;5026774;28;20407;-71
2023/05/29 07:38:36;;;;;;;21.50;3.63;;;13.90;99.90;;;;;;5028874;28;20465;-71
2023/05/29 07:41:01;;;;;;;17.00;2.90;;;13.90;99.90;;;;;;5031533;28;20454;-71
2023/05/29 07:43:27;;;;;;;15.37;2.97;;;13.90;99.90;;;;;;5004115;28;20411;-71
2023/05/29 07:45:53;;;;;;;17.40;3.13;;;14.00;99.90;;;;;;5024781;28;20477;-71
2023/05/29 07:48:18;;;;;;;14.97;3.20;;;14.10;99.90;;;;;;5012652;28;20430;-71
2023/05/29 07:50:44;;;;;;;16.08;3.63;;;14.10;99.90;;;;;;5033335;28;20448;-71
2023/05/29 07:53:09;;;;;;;17.57;3.40;;;14.10;99.90;;;;;;5013784;28;20820;-71
2023/05/29 07:55:35;;;;;;;18.03;3.37;;;14.10;99.90;;;;;;5014779;28;20814;-71
2023/05/29 07:58:01;;;;;;;15.02;3.38;;;14.10;99.90;;;;;;5031124;28;20936;-73
2023/05/29 08:00:28;;;;;;;17.08;3.50;;;14.20;99.90;;;;;;5014176;28;20459;-73
2023/05/29 08:02:54;;;;;;;13.98;3.05;;;14.30;99.90;;;;;;5014045;28;20501;-72
2023/05/29 08:05:20;;;;;;;19.65;3.50;;;14.30;99.90;;;;;;4995825;28;20482;-72
2023/05/29 08:07:48;;;;;;;17.02;3.25;;;14.30;99.90;;;;;;5013948;28;20510;-72
2023/05/29 08:10:13;;;;;;;12.73;3.17;;;14.30;99.90;;;;;;5015259;28;20406;-72
2023/05/29 08:12:39;;;;;;;15.27;3.30;;;14.40;99.90;;;;;;5030664;28;20482;-72
2023/05/29 08:15:05;;;;;;;16.25;3.38;;;14.50;99.90;;;;;;5012916;28;20746;-72
2023/05/29 08:17:31;;;;;;;15.55;3.33;;;14.50;99.90;;;;;;5031301;28;20411;-72
2023/05/29 08:19:56;;;;;;;15.53;3.37;;;14.60;99.90;;;;;;5032981;28;20440;-72
2023/05/29 08:22:28;;;;;;;18.67;3.00;;;14.60;99.90;;;;;;5031508;28;20446;-73
2023/05/29 08:24:53;;;;;;;13.48;2.83;;;14.60;99.90;;;;;;4994198;28;20453;-73
2023/05/29 08:27:19;;;;;;;16.27;3.00;;;14.60;99.90;;;;;;5009142;28;21001;-73
2023/05/29 08:29:45;;;;;;;21.30;3.53;;;14.60;99.90;;;;;;5011025;28;20407;-72
2023/05/29 08:32:10;;;;;;;16.55;3.20;;;14.70;99.90;;;;;;5011775;28;20458;-73
2023/05/29 08:34:36;;;;;;;19.23;3.23;;;14.80;99.90;;;;;;5028608;28;20410;-73
2023/05/29 08:37:01;;;;;;;17.77;3.25;;;14.80;99.90;;;;;;5011760;28;20443;-72
2023/05/29 08:39:27;;;;;;;19.57;4.10;;;14.90;99.90;;;;;;5014248;28;20443;-72
2023/05/29 08:42:07;;;;;;;15.85;3.38;;;15.00;99.90;;;;;;4986985;28;20405;-72
2023/05/29 08:44:39;;;;;;;15.27;3.40;;;14.90;99.90;;;;;;5028247;28;20424;-73
2023/05/29 08:47:06;;;;;;;15.43;3.90;;;14.90;99.90;;;;;;5037188;28;20418;-73
2023/05/29 08:49:43;;;;;;;14.98;2.97;;;14.90;99.90;;;;;;5020865;28;20808;-73
2023/05/29 08:52:20;;;;;;;16.63;3.50;;;15.00;99.90;;;;;;5022516;28;20469;-73
2023/05/29 08:54:46;;;;;;;16.73;3.58;;;15.00;99.90;;;;;;5010850;28;20925;-73
2023/05/29 08:57:12;;;;;;;14.67;3.07;;;15.10;99.90;;;;;;5031191;28;20418;-73
2023/05/29 08:59:42;;;;;;;16.98;3.22;;;15.20;99.90;;;;;;5039145;28;20445;-73
2023/05/29 09:02:08;;;;;;;14.30;3.10;;;15.20;99.90;;;;;;5009850;28;20419;-73
2023/05/29 09:04:33;;;;;;;16.00;3.10;;;15.30;99.90;;;;;;5010876;28;20925;-72
2023/05/29 09:06:59;;;;;;;15.80;3.17;;;15.40;99.90;;;;;;5010092;28;20421;-72
2023/05/29 09:09:28;;;;;;;15.35;2.97;;;15.30;99.90;;;;;;5011201;28;20419;-72
2023/05/29 09:11:56;;;;;;;14.68;3.17;;;15.30;99.90;;;;;;5019072;28;20559;-72
2023/05/29 09:14:39;;;;;;;13.63;3.38;;;15.30;99.90;;;;;;5011514;28;20777;-72
2023/05/29 09:17:06;;;;;;;15.02;3.50;;;15.40;99.90;;;;;;5001533;28;20419;-72
2023/05/29 09:19:32;;;;;;;19.83;3.65;;;15.40;99.90;;;;;;4984627;28;20441;-72
2023/05/29 09:22:08;;;;;;;16.23;3.58;;;15.40;99.90;;;;;;5011447;28;20415;-72
2023/05/29 09:24:38;;;;;;;14.10;2.55;;;15.50;99.90;;;;;;5010667;28;21052;-72
2023/05/29 09:27:05;;;;;;;14.83;3.30;;;15.70;99.90;;;;;;5023616;28;20413;-73
2023/05/29 09:29:32;;;;;;;16.38;3.15;;;15.90;99.90;;;;;;4995818;28;20407;-73
2023/05/29 09:31:57;;;;;;;17.23;3.17;;;16.00;99.90;;;;;;5030571;28;20876;-72
2023/05/29 09:34:26;;;;;;;17.07;3.97;;;16.10;99.90;;;;;;5003044;28;20497;-73
2023/05/29 09:36:52;;;;;;;16.13;3.03;;;16.10;99.90;;;;;;5023173;28;20424;-73
2023/05/29 09:39:18;;;;;;;17.30;3.00;;;16.10;99.90;;;;;;5007510;28;20532;-73
2023/05/29 09:41:48;;;;;;;17.00;3.42;;;16.20;99.90;;;;;;5030859;28;20424;-73
2023/05/29 09:44:17;;;;;;;15.75;3.35;;;16.30;99.90;;;;;;5032475;28;20454;-72
2023/05/29 09:46:42;;;;;;;14.55;3.17;;;16.40;99.90;;;;;;5013563;28;20458;-73
2023/05/29 09:49:11;;;;;;;14.70;2.92;;;16.50;99.90;;;;;;5028041;28;20442;-73
2023/05/29 09:51:37;;;;;;;16.90;3.40;;;16.60;99.90;;;;;;5020070;28;20424;-73
2023/05/29 09:54:23;;;;;;;13.90;2.90;;;16.60;99.90;;;;;;5013235;28;20407;-73
2023/05/29 09:56:50;;;;;;;15.37;2.90;;;16.70;99.90;;;;;;5027335;28;20450;-72
2023/05/29 09:59:17;;;;;;;16.08;3.10;;;16.80;99.90;;;;;;4993135;28;21001;-73
2023/05/29 10:01:43;;;;;;;15.18;3.05;;;16.80;99.90;;;;;;5040716;28;20420;-72
2023/05/29 10:04:10;;;;;;;13.35;3.13;;;16.80;99.90;;;;;;5026473;28;21461;-72
2023/05/29 10:06:38;;;;;;;14.70;3.00;;;16.80;99.90;;;;;;5010611;28;20497;-73
2023/05/29 10:09:07;;;;;;;16.05;3.53;;;16.80;99.90;;;;;;5027423;28;20438;-73
2023/05/29 10:11:35;;;;;;;13.98;3.20;;;16.90;99.90;;;;;;5014638;28;20428;-73
2023/05/29 10:14:03;;;;;;;17.90;2.92;;;17.20;99.90;;;;;;5028185;28;20411;-74
2023/05/29 10:16:34;;;;;;;14.77;2.92;;;17.30;99.90;;;;;;5029057;28;20399;-74
2023/05/29 10:19:01;;;;;;;12.30;3.13;;;17.60;99.90;;;;;;5017089;28;20987;-74
2023/05/29 10:21:28;;;;;;;15.15;3.05;;;17.80;99.70;;;;;;5029232;28;20410;-73
2023/05/29 10:23:56;;;;;;;11.77;2.53;;;17.90;99.90;;;;;;5029876;28;20821;-73
2023/05/29 10:26:27;;;;;;;13.85;3.15;;;17.90;99.60;;;;;;5027089;28;20404;-73
2023/05/29 10:29:05;;;;;;;13.35;2.85;;;17.90;99.20;;;;;;5030426;28;20457;-74
2023/05/29 10:31:52;;;;;;;13.52;3.10;;;17.90;99.00;;;;;;5029715;28;20768;-73
2023/05/29 10:34:47;;;;;;;17.08;3.40;;;18.00;99.10;;;;;;5029575;28;20450;-74
2023/05/29 10:37:42;;;;;;;11.75;2.80;;;18.00;99.10;;;;;;5029415;28;20477;-74
2023/05/29 10:40:16;;;;;;;15.57;3.13;;;18.10;98.00;;;;;;5025635;28;21476;-74
2023/05/29 10:42:47;;;;;;;13.48;2.92;;;18.20;97.20;;;;;;5011136;28;20465;-73
2023/05/29 10:45:31;;;;;;;14.70;3.17;;;18.20;97.40;;;;;;5029303;28;20500;-74
2023/05/29 10:48:12;;;;;;;14.18;3.08;;;18.10;97.60;;;;;;5009574;28;20427;-73
2023/05/29 10:50:41;;;;;;;12.87;3.00;;;18.30;97.40;;;;;;5026554;28;20444;-73
2023/05/29 10:53:11;;;;;;;14.10;2.72;;;18.50;98.50;;;;;;5009351;28;20419;-74
2023/05/29 10:55:38;;;;;;;14.88;2.80;;;18.70;97.80;;;;;;5013909;28;20403;-73
2023/05/29 10:58:08;;;;;;;13.63;3.00;;;18.90;97.50;;;;;;5027751;28;20427;-74
2023/05/29 11:00:41;;;;;;;14.18;2.92;;;19.00;96.70;;;;;;5026999;28;20422;-74
2023/05/29 11:03:07;;;;;;;14.57;3.17;;;19.00;96.60;;;;;;5027715;28;20410;-74
2023/05/29 11:05:33;;;;;;;14.13;3.00;;;18.90;95.40;;;;;;5030295;28;20407;-74
2023/05/29 11:08:03;;;;;;;12.52;2.70;;;18.80;95.90;;;;;;5031469;28;20399;-74
2023/05/29 11:10:47;;;;;;;12.75;2.83;;;18.80;96.20;;;;;;5032042;28;20439;-74
2023/05/29 11:13:34;;;;;;;13.07;3.03;;;18.70;96.40;;;;;;5032241;28;20422;-74
2023/05/29 11:16:09;;;;;;;14.60;3.08;;;18.80;95.70;;;;;;5014046;28;21123;-74
2023/05/29 11:18:44;;;;;;;15.45;3.20;;;18.90;96.40;;;;;;5012002;28;20481;-74
2023/05/29 11:21:23;;;;;;;14.90;3.17;;;18.80;94.40;;;;;;5014716;28;20418;-74
2023/05/29 11:23:54;;;;;;;15.25;3.28;;;18.70;95.40;;;;;;4986265;28;20517;-74
2023/05/29 11:26:22;;;;;;;12.67;3.10;;;18.80;95.30;;;;;;5033450;28;21859;-74
2023/05/29 11:28:48;;;;;;;12.85;2.90;;;18.90;94.90;;;;;;5014522;28;20430;-74
2023/05/29 11:31:16;;;;;;;12.55;2.88;;;19.20;95.70;;;;;;5032151;28;20431;-74
2023/05/29 11:33:47;;;;;;;12.93;2.70;;;19.50;95.40;;;;;;5032018;28;20415;-74
2023/05/29 11:36:14;;;;;;;12.98;2.92;;;19.50;94.80;;;;;;5031308;28;20495;-74
2023/05/29 11:38:40;;;;;;;16.25;3.05;;;19.60;94.80;;;;;;5029762;28;20785;-74
2023/05/29 11:41:06;;;;;;;15.20;2.80;;;19.70;94.30;;;;;;5013315;28;20413;-74
2023/05/29 11:43:32;;;;;;;15.97;3.07;;;19.70;94.10;;;;;;5013878;28;20435;-74
2023/05/29 11:45:58;;;;;;;12.52;2.78;;;19.60;93.40;;;;;;5029217;28;20420;-74
2023/05/29 11:48:24;;;;;;;13.53;3.07;;;19.70;92.90;;;;;;5022373;28;20415;-74
2023/05/29 11:50:50;;;;;;;14.38;3.20;;;19.60;93.60;;;;;;5042873;28;20399;-74
2023/05/29 11:53:15;;;;;;;13.50;2.63;;;19.70;93.50;;;;;;5028681;28;20415;-74
2023/05/29 11:55:41;;;;;;;;;;;19.80;93.30;;;;;;5013085;28;20051;-74
2023/05/29 11:58:07;;;;;;;;;;;19.80;92.70;;;;;;4997363;28;19956;-74
2023/05/29 12:00:33;;;;;;;;;;;19.60;93.20;;;;;;5012564;28;19924;-74
2023/05/29 12:03:03;;;;;;;;;;;19.60;93.20;;;;;;5013551;28;19928;-74
2023/05/29 12:05:29;;;;;;;;;;;19.70;92.10;;;;;;5012736;28;19935;-74
2023/05/29 12:08:00;;;;;;;;;;;19.80;93.30;;;;;;5013407;28;19979;-74
2023/05/29 12:10:26;;;;;;;;;;;20.00;93.00;;;;;;5008679;28;19928;-74
2023/05/29 12:12:54;;;;;;;12.48;2.70;;;20.10;91.10;;;;;;5003752;28;20390;-74
2023/05/29 12:15:21;;;;;;;12.35;2.85;;;20.20;91.90;;;;;;5009502;28;20419;-74
2023/05/29 12:17:48;;;;;;;16.37;3.03;;;20.20;91.50;;;;;;5011434;28;20403;-74
2023/05/29 12:20:15;;;;;;;12.57;2.53;;;20.20;91.50;;;;;;4997768;28;20447;-74
2023/05/29 12:22:42;;;;;;;13.70;2.75;;;20.20;91.70;;;;;;5029435;28;20494;-74
2023/05/29 12:25:20;;;;;;;12.55;2.63;;;20.30;91.80;;;;;;5029244;28;20443;-74
2023/05/29 12:27:47;;;;;;;12.97;2.50;;;20.40;91.40;;;;;;5029962;28;20415;-74
2023/05/29 12:30:20;;;;;;;15.32;2.78;;;20.30;90.70;;;;;;5025831;28;20759;-74
2023/05/29 12:32:47;;;;;;;;;;;20.30;91.10;;;;;;5019091;28;20062;-72
2023/05/29 12:35:17;;;;;;;;;;;20.40;90.20;;;;;;5024689;28;20030;-72
2023/05/29 12:37:49;;;;;;;;;;;20.50;91.00;;;;;;5029889;28;21155;-73
2023/05/29 12:40:15;;;;;;;;;;;20.70;90.80;;;;;;5029510;28;19925;-73
2023/05/29 12:42:41;;;;;;;;;;;20.80;89.50;;;;;;5009958;28;20438;-73